Flight Track Log - Related Links

Times and Time Zones

All times are in EDT time to prevent confusion due to time zone crossing. See the ASQ5539 flight status page for this flight to view local times or setup timezone preferences in your user account.

Time Position Orientation Groundspeed Altitude Reporting Facility
EDT Latitude Longitude Course Direction KTS MPH feet Rate Location/Type
Sun 09:01:43 PM 30.6139 -86.3658 41° Northeast 286 329 6,700  Level Jacksonville Center
Sun 09:02:43 PM 30.6739 -86.3053 41° Northeast 280 322 9,100 2,000 Climbing Jacksonville Center
Sun 09:03:43 PM 30.7361 -86.2375 43° Northeast 288 331 10,700 1,550 Climbing Jacksonville Center
Sun 09:04:00 PM 30.5580 -86.5167 North  Level FlightAware Approximate
Sun 09:04:43 PM 30.8172 -86.1750 33° Northeast 319 367 12,200  Level Jacksonville Center
Sun 09:05:00 PM 30.6494 -86.5167 North  Level FlightAware Approximate
Sun 09:05:43 PM 30.9142 -86.1322 21° North 342 394 13,500  Level Jacksonville Center
Sun 09:06:43 PM 31.0156 -86.0922 19° North 362 417 14,800 1,350 Climbing Jacksonville Center
Sun 09:07:43 PM 31.1272 -86.0450 20° North 377 434 16,200 1,277 Climbing Jacksonville Center
Sun 09:09:51 PM 31.3436 -85.9547 20° North 414 476 18,800 1,245 Climbing Atlanta Center
Sun 09:10:51 PM 31.4528 -85.9058 21° North 414 476 20,100 1,300 Climbing Atlanta Center
Sun 09:11:51 PM 31.5600 -85.8619 19° North 414 476 21,400 1,250 Climbing Atlanta Center
Sun 09:12:51 PM 31.6672 -85.8153 20° North 409 471 22,600 800 Climbing Atlanta Center
Sun 09:13:51 PM 31.7764 -85.7661 21° North 409 471 23,000 200 Climbing Atlanta Center
Sun 09:14:51 PM 31.9128 -85.7075 20° North 442 509 23,000  Level Atlanta Center
Sun 09:15:51 PM 32.0367 -85.6508 21° North 462 532 23,000  Level Atlanta Center
Sun 09:16:51 PM 32.1689 -85.5944 20° North 481 554 23,000  Level Atlanta Center
Sun 09:17:51 PM 32.2886 -85.5328 24° Northeast 481 554 23,000  Level Atlanta Center
Sun 09:18:51 PM 32.4106 -85.4633 26° Northeast 475 547 23,000  Level Atlanta Center
Sun 09:19:51 PM 32.5303 -85.3964 25° Northeast 475 547 23,000  Level Atlanta Center
Sun 09:20:51 PM 32.6519 -85.3292 25° Northeast 475 547 23,000 -500 Level Atlanta Center
Sun 09:21:51 PM 32.7717 -85.2617 25° Northeast 470 541 22,000 -1,000 Descending Atlanta Center
Sun 09:22:51 PM 32.8914 -85.1917 26° Northeast 465 535 21,000 -1,300 Descending Atlanta Center
Sun 09:23:51 PM 33.0131 -85.1314 23° Northeast 465 535 19,400 -2,700 Descending Atlanta Center
Sun 09:24:51 PM 33.1178 -85.0706 26° Northeast 436 502 15,600 -3,700 Descending Atlanta Center
Sun 09:25:51 PM 33.2061 -85.0022 33° Northeast 396 456 12,000 -3,300 Descending Atlanta Center
Sun 09:26:51 PM 33.2650 -84.9283 46° Northeast 336 387 9,000 -2,000 Descending Atlanta Center
Sun 09:27:51 PM 33.3219 -84.8492 49° Northeast 319 367 8,000 -850 Descending Atlanta Center
Sun 09:28:51 PM 33.3931 -84.8125 23° Northeast 286 329 7,300 -1,309 Descending Atlanta Center
Sun 09:29:41 PM 33.4667 -84.8167 357° North 287 330 5,600 -1,909 Descending Atlanta TRACON
Sun 09:30:41 PM 33.5333 -84.8167 360° North 283 326 3,800 -1,368 Descending Atlanta TRACON
Sun 09:31:35 PM 33.6000 -84.8000 12° North 243 280 3,000 -421 Descending Atlanta TRACON
Sun 09:32:35 PM 33.6167 -84.7500 68° East 179 206 3,000  Level Atlanta TRACON
Sun 09:33:41 PM 33.6167 -84.6833 90° East 173 199 3,000  Level Atlanta TRACON
Sun 09:34:35 PM 33.6167 -84.6333 90° East 176 203 3,000  Level Atlanta TRACON
Sun 09:35:35 PM 33.6167 -84.5833 90° East 175 201 3,000 -263 Level Atlanta TRACON
Sun 09:36:29 PM 33.6167 -84.5333 90° East 152 175 2,500 -684 Descending Atlanta TRACON
Sun 09:37:29 PM 33.6167 -84.4833 90° East 131 151 1,700 -800 Descending Atlanta TRACON
Sun 09:39:00 PM 33.6367 -84.4279 119° Southeast  Level Estimated
Sun 09:46:00 PM 33.6367 -84.4279 301° West  Level Estimated

Login

Don't have an account? Register now (free) for customized features, flight alerts, and more!